aviador You're here:

LUKK Decoded Metar

KISHINEV in MOLDOVA
Report Time2018-02-20 13:30:00
UTC Time2018-02-20 13:54:08
Flight Rules vfr VFR
Wind110° at 08 kt
W.Decomp.*RWY 08: 7.3 kt HW 3.3 kt RCW
W.Rank110° ranks 34
Current wind is above 110° avg. (5.7)
Visibility9999 m
Phenomena:N/A
Clouds:Few 032 Hf
Expected CloudBase > 3,200 ft AGL from Temp-Dew spread
CeilingNone
Temp02°C (ISA -12)
Dew Point-6°C (56% RH)
AAT-3.6°C
QNH1022 hPa
Density Alt-1,332 ft
Elevation400 ft
Report Wrong Elevation
Raw Report
METAR LUKK 201330Z 11008KT 080V140 9999 FEW032 02/M06 Q1022 R08/110095
NOSIG=

Extra information for LUKK:More info

Metar Taf Metar & Taf Last 4 Metars F.Rules Stats Wind Profile Meteogram Temp Stats Airport Information Weather charts Add Link Nearby VenuesMetar ALERT Operation Metar Decoded Social comments